createdAt,value
2019-04-21T00:04:52.018Z,101319.81
2019-04-21T00:10:06.289Z,101313.05
2019-04-21T00:15:00.725Z,101315.00
2019-04-21T00:20:05.545Z,101313.27
2019-04-21T00:25:14.044Z,101306.31
2019-04-21T00:30:30.331Z,101300.73
2019-04-21T00:35:13.304Z,101293.85
2019-04-21T00:40:35.526Z,101293.38
2019-04-21T00:45:31.305Z,101290.09
2019-04-21T00:50:51.796Z,101294.45
2019-04-21T00:55:52.027Z,101293.01
2019-04-21T01:00:57.069Z,101288.75
2019-04-21T01:05:56.087Z,101289.47
2019-04-21T01:10:52.990Z,101282.84
2019-04-21T01:16:06.478Z,101280.47
2019-04-21T01:20:48.989Z,101278.00
2019-04-21T01:26:06.794Z,101273.36
2019-04-21T01:31:15.363Z,101276.00
2019-04-21T01:36:14.452Z,101271.13
2019-04-21T01:41:25.556Z,101274.88
2019-04-21T01:46:28.379Z,101267.98
2019-04-21T01:51:28.105Z,101263.95
2019-04-21T01:56:46.658Z,101257.80
2019-04-21T02:01:48.494Z,101253.53
2019-04-21T02:06:55.034Z,101254.88
2019-04-21T02:12:00.078Z,101254.60
2019-04-21T02:17:00.661Z,101249.72
2019-04-21T02:22:02.394Z,101251.95
2019-04-21T02:27:13.201Z,101254.73
2019-04-21T02:37:36.801Z,101240.69
2019-04-21T02:42:37.868Z,101238.81
2019-04-21T02:47:47.482Z,101233.11
2019-04-21T02:52:52.740Z,101234.10
2019-04-21T03:03:05.585Z,101233.44
2019-04-21T03:13:17.523Z,101214.04
2019-04-21T03:18:17.651Z,101211.17
2019-04-21T03:23:19.164Z,101207.36
2019-04-21T03:28:22.210Z,101198.43
2019-04-21T03:38:28.845Z,101189.30
2019-04-21T03:48:36.575Z,101187.55
2019-04-21T03:53:40.361Z,101182.06
2019-04-21T04:04:30.516Z,101188.06
2019-04-21T04:14:44.483Z,101191.77
2019-04-21T04:19:45.082Z,101191.77
2019-04-21T04:24:57.544Z,101200.25
2019-04-21T04:29:59.357Z,101196.56
2019-04-21T04:40:31.437Z,101207.07
2019-04-21T04:45:41.656Z,101198.73
2019-04-21T05:00:45.914Z,101207.42
2019-04-21T05:06:42.109Z,101210.90
2019-04-21T05:11:46.095Z,101203.58
2019-04-21T05:16:55.909Z,101206.70
2019-04-21T05:21:42.057Z,101205.34
2019-04-21T05:26:39.153Z,101195.89
2019-04-21T05:32:07.887Z,101200.41
2019-04-21T05:37:29.280Z,101202.38
2019-04-21T05:42:35.335Z,101192.91
2019-04-21T05:48:12.062Z,101200.73
2019-04-21T05:53:00.754Z,101204.98
2019-04-21T05:58:06.912Z,101204.88
2019-04-21T06:03:17.552Z,101211.05
2019-04-21T06:08:19.356Z,101205.52
2019-04-21T06:13:26.859Z,101202.50
2019-04-21T06:18:36.426Z,101202.97
2019-04-21T06:23:38.093Z,101203.41
2019-04-21T06:28:44.067Z,101207.32
2019-04-21T06:33:41.977Z,101184.95
2019-04-21T06:39:06.410Z,101190.89
2019-04-21T06:44:20.333Z,101186.84
2019-04-21T06:49:02.687Z,101186.17
2019-04-21T06:54:09.849Z,101188.59
2019-04-21T06:59:20.851Z,101192.05
2019-04-21T07:09:23.817Z,101192.95
2019-04-21T07:14:30.214Z,101169.76
2019-04-21T07:19:34.686Z,101170.21
2019-04-21T07:24:35.445Z,101165.02
2019-04-21T07:29:45.346Z,101162.92
2019-04-21T07:34:38.547Z,101162.69
2019-04-21T07:39:40.508Z,101160.91
2019-04-21T07:44:40.854Z,101159.30
2019-04-21T07:50:07.438Z,101163.27
2019-04-21T08:05:20.008Z,101148.47
2019-04-21T08:10:22.478Z,101139.95
2019-04-21T08:15:38.592Z,101140.16
2019-04-21T08:20:31.336Z,101130.72
2019-04-21T08:25:46.538Z,101131.17
2019-04-21T08:30:43.028Z,101119.24
2019-04-21T08:36:08.001Z,101119.80
2019-04-21T08:40:52.443Z,101112.55
2019-04-21T08:45:52.738Z,101110.78
2019-04-21T08:51:05.655Z,101113.19
2019-04-21T08:56:17.314Z,101105.98
2019-04-21T09:01:42.933Z,101105.92
2019-04-21T09:11:47.191Z,101100.12
2019-04-21T09:16:54.941Z,101086.66
2019-04-21T09:22:13.244Z,101081.23
2019-04-21T09:26:58.026Z,101079.75
2019-04-21T09:31:49.441Z,101065.77
2019-04-21T09:37:02.847Z,101062.25
2019-04-21T09:41:59.069Z,101065.33
2019-04-21T09:47:02.029Z,101050.03
2019-04-21T09:52:06.670Z,101058.02
2019-04-21T09:57:15.236Z,101042.91
2019-04-21T10:02:18.856Z,101043.45
2019-04-21T10:07:24.677Z,101039.84
2019-04-21T10:12:19.992Z,101042.95
2019-04-21T10:17:49.572Z,101042.82
2019-04-21T10:22:53.014Z,101023.30
2019-04-21T10:27:55.138Z,101021.70
2019-04-21T10:32:58.425Z,101008.94
2019-04-21T10:38:12.894Z,101009.44
2019-04-21T10:43:07.487Z,101005.61
2019-04-21T10:48:08.867Z,100998.23
2019-04-21T10:53:23.111Z,100993.45
2019-04-21T10:58:44.949Z,100980.52
2019-04-21T11:03:51.014Z,100973.20
2019-04-21T11:08:55.597Z,100977.47
2019-04-21T11:13:57.157Z,100973.23
2019-04-21T11:19:00.018Z,100962.33
2019-04-21T11:24:02.243Z,100948.83
2019-04-21T11:29:05.236Z,100944.25
2019-04-21T11:34:09.635Z,100935.92
2019-04-21T11:39:30.781Z,100925.37
2019-04-21T11:44:24.770Z,100925.32
2019-04-21T11:49:30.500Z,100917.47
2019-04-21T11:54:31.155Z,100909.87
2019-04-21T11:59:33.523Z,100903.66
2019-04-21T12:04:35.900Z,100908.80
2019-04-21T12:09:37.987Z,100900.09
2019-04-21T12:14:41.834Z,100897.40
2019-04-21T12:19:44.750Z,100895.63
2019-04-21T12:24:49.068Z,100890.56
2019-04-21T12:29:51.683Z,100877.36
2019-04-21T12:34:55.310Z,100873.59
2019-04-21T12:39:58.979Z,100863.75
2019-04-21T12:45:01.490Z,100851.60
2019-04-21T12:50:04.820Z,100854.80
2019-04-21T12:55:07.380Z,100839.66
2019-04-21T13:00:13.097Z,100831.06
2019-04-21T13:05:15.974Z,100832.19
2019-04-21T13:10:20.093Z,100816.91
2019-04-21T13:15:22.466Z,100816.63
2019-04-21T13:20:25.415Z,100827.83
2019-04-21T13:25:27.865Z,100802.64
2019-04-21T13:30:30.559Z,100803.45
2019-04-21T13:35:33.159Z,100784.17
2019-04-21T13:41:17.577Z,100782.21
2019-04-21T13:46:08.271Z,100771.75
2019-04-21T13:51:11.206Z,100770.38
2019-04-21T13:56:14.340Z,100757.84
2019-04-21T14:01:17.932Z,100751.07
2019-04-21T14:06:20.528Z,100772.45
2019-04-21T14:11:23.060Z,100742.97
2019-04-21T14:16:26.617Z,100744.11
2019-04-21T14:21:29.395Z,100739.89
2019-04-21T14:26:32.123Z,100737.64
2019-04-21T14:31:34.746Z,100724.03
2019-04-21T14:36:37.176Z,100727.35
2019-04-21T14:41:40.288Z,100713.30
2019-04-21T14:46:50.962Z,100713.85
2019-04-21T14:52:19.107Z,100700.48
2019-04-21T14:57:21.446Z,100703.30
2019-04-21T15:02:23.806Z,100705.88
2019-04-21T15:07:28.671Z,100692.72
2019-04-21T15:12:31.809Z,100689.39
2019-04-21T15:17:33.999Z,100676.80
2019-04-21T15:22:36.460Z,100687.66
2019-04-21T15:27:39.040Z,100678.00
2019-04-21T15:32:42.299Z,100684.77
2019-04-21T15:37:46.225Z,100669.24
2019-04-21T15:42:48.526Z,100660.30
2019-04-21T15:47:51.887Z,100664.89
2019-04-21T15:52:55.882Z,100650.09
2019-04-21T15:58:16.500Z,100656.09
2019-04-21T16:03:18.998Z,100642.94
2019-04-21T16:08:22.018Z,100641.47
2019-04-21T16:13:25.791Z,100634.89
2019-04-21T16:18:28.097Z,100634.94
2019-04-21T16:23:30.731Z,100624.80
2019-04-21T16:28:33.381Z,100625.52
2019-04-21T16:33:36.826Z,100621.66
2019-04-21T16:38:39.648Z,100615.39
2019-04-21T16:43:43.036Z,100608.73
2019-04-21T16:48:49.353Z,100609.62
2019-04-21T16:53:57.695Z,100598.24
2019-04-21T16:59:06.381Z,100598.15
2019-04-21T17:04:10.647Z,100591.53
2019-04-21T17:09:12.977Z,100583.41
2019-04-21T17:14:31.220Z,100586.75
2019-04-21T17:19:27.185Z,100570.89
2019-04-21T17:24:24.271Z,100573.56
2019-04-21T17:29:26.602Z,100573.23
2019-04-21T17:34:30.595Z,100568.17
2019-04-21T17:39:32.683Z,100575.41
2019-04-21T17:44:35.164Z,100570.47
2019-04-21T17:49:37.454Z,100565.27
2019-04-21T17:54:48.498Z,100562.87
2019-04-21T18:00:11.621Z,100559.66
2019-04-21T18:05:18.775Z,100561.64
2019-04-21T18:10:14.366Z,100564.06
2019-04-21T18:15:16.922Z,100563.44
2019-04-21T18:20:01.919Z,100565.34
2019-04-21T18:25:13.770Z,100561.12
2019-04-21T18:30:36.251Z,100560.56
2019-04-21T18:35:58.167Z,100562.53
2019-04-21T18:41:01.437Z,100565.60
2019-04-21T18:46:42.308Z,100566.54
2019-04-21T18:51:55.204Z,100567.44
2019-04-21T18:56:56.565Z,100573.76
2019-04-21T19:01:59.721Z,100573.63
2019-04-21T19:07:12.740Z,100580.58
2019-04-21T19:12:23.540Z,100577.72
2019-04-21T19:22:28.875Z,100571.35
2019-04-21T19:27:31.105Z,100584.34
2019-04-21T19:32:36.182Z,100582.10
2019-04-21T19:37:26.997Z,100583.06
2019-04-21T19:42:37.586Z,100582.96
2019-04-21T19:47:56.540Z,100584.88
2019-04-21T19:52:48.626Z,100574.84
2019-04-21T19:57:43.142Z,100582.42
2019-04-21T20:02:46.038Z,100580.02
2019-04-21T20:08:06.683Z,100583.23
2019-04-21T20:13:15.173Z,100579.31
2019-04-21T20:18:07.179Z,100576.94
2019-04-21T20:23:03.074Z,100580.66
2019-04-21T20:28:15.043Z,100575.59
2019-04-21T20:33:46.918Z,100571.48
2019-04-21T20:38:24.766Z,100564.24
2019-04-21T20:43:38.661Z,100567.95
2019-04-21T20:48:40.120Z,100559.41
2019-04-21T20:53:40.956Z,100555.78
2019-04-21T20:58:45.306Z,100563.73
2019-04-21T21:03:50.559Z,100565.94
2019-04-21T21:08:57.165Z,100556.71
2019-04-21T21:13:58.931Z,100557.89
2019-04-21T21:24:08.570Z,100553.82
2019-04-21T21:29:07.085Z,100548.03
2019-04-21T21:34:20.827Z,100554.32
2019-04-21T21:39:21.364Z,100549.71
2019-04-21T21:44:14.854Z,100553.00
2019-04-21T21:49:27.897Z,100546.06
2019-04-21T21:54:19.864Z,100545.43
2019-04-21T21:59:27.542Z,100542.78
2019-04-21T22:04:30.759Z,100548.11
2019-04-21T22:09:32.376Z,100547.75
2019-04-21T22:14:44.674Z,100547.26
2019-04-21T22:20:03.792Z,100547.09
2019-04-21T22:24:55.590Z,100538.02
2019-04-21T22:29:52.847Z,100537.67
2019-04-21T22:34:58.301Z,100535.70
2019-04-21T22:40:09.614Z,100532.70
2019-04-21T22:45:01.360Z,100530.88
2019-04-21T22:50:04.608Z,100533.67
2019-04-21T22:55:15.952Z,100531.84
2019-04-21T23:00:15.492Z,100533.13
2019-04-21T23:05:22.276Z,100532.80
2019-04-21T23:10:23.374Z,100525.02
2019-04-21T23:15:36.881Z,100522.38
2019-04-21T23:20:47.974Z,100524.13
2019-04-21T23:25:46.206Z,100524.96
2019-04-21T23:31:00.872Z,100516.20
2019-04-21T23:35:45.998Z,100516.48
2019-04-21T23:40:54.259Z,100510.53
2019-04-21T23:45:52.134Z,100510.00
2019-04-21T23:51:07.688Z,100506.98
2019-04-21T23:55:59.210Z,100492.95
